createdAt,value
2019-05-15T00:00:38.731Z,2.47
2019-05-15T00:03:09.552Z,2.40
2019-05-15T00:05:40.246Z,2.43
2019-05-15T00:08:11.106Z,2.37
2019-05-15T00:10:41.767Z,2.10
2019-05-15T00:13:12.497Z,2.30
2019-05-15T00:15:43.708Z,2.50
2019-05-15T00:18:14.458Z,2.47
2019-05-15T00:20:45.193Z,2.57
2019-05-15T00:23:18.182Z,2.27
2019-05-15T00:25:48.883Z,2.33
2019-05-15T00:28:19.687Z,2.37
2019-05-15T00:30:50.381Z,2.27
2019-05-15T00:33:21.100Z,1.93
2019-05-15T00:35:51.839Z,2.27
2019-05-15T00:38:22.492Z,1.90
2019-05-15T00:40:53.201Z,2.33
2019-05-15T00:43:23.828Z,2.53
2019-05-15T00:45:54.498Z,2.03
2019-05-15T00:48:25.265Z,2.47
2019-05-15T00:50:55.918Z,2.70
2019-05-15T00:53:28.261Z,2.43
2019-05-15T00:55:59.120Z,2.37
2019-05-15T00:58:29.779Z,2.23
2019-05-15T01:01:00.449Z,2.30
2019-05-15T01:03:31.089Z,2.40
2019-05-15T01:06:02.404Z,2.33
2019-05-15T01:08:34.738Z,2.43
2019-05-15T01:11:05.318Z,2.13
2019-05-15T01:13:35.981Z,2.20
2019-05-15T01:16:08.887Z,2.10
2019-05-15T01:18:39.842Z,2.13
2019-05-15T01:21:10.661Z,2.37
2019-05-15T01:23:41.580Z,2.30
2019-05-15T01:26:12.252Z,1.90
2019-05-15T01:28:43.116Z,2.07
2019-05-15T01:31:13.795Z,2.87
2019-05-15T01:33:45.348Z,2.43
2019-05-15T01:36:16.024Z,3.30
2019-05-15T01:38:48.057Z,2.80
2019-05-15T01:41:19.049Z,2.20
2019-05-15T01:43:49.848Z,2.53
2019-05-15T01:46:20.557Z,2.77
2019-05-15T01:48:51.279Z,2.90
2019-05-15T01:51:21.948Z,2.53
2019-05-15T01:53:52.714Z,2.53
2019-05-15T01:56:23.382Z,2.10
2019-05-15T01:58:54.046Z,2.07
2019-05-15T02:01:24.693Z,2.13
2019-05-15T02:03:55.415Z,2.13
2019-05-15T02:06:28.333Z,2.33
2019-05-15T02:08:58.804Z,2.10
2019-05-15T02:11:29.592Z,2.17
2019-05-15T02:14:00.285Z,2.03
2019-05-15T02:16:31.015Z,1.93
2019-05-15T02:19:01.852Z,1.63
2019-05-15T02:21:32.516Z,2.00
2019-05-15T02:24:03.193Z,2.40
2019-05-15T02:26:34.714Z,2.10
2019-05-15T02:29:07.861Z,2.17
2019-05-15T02:31:39.636Z,2.10
2019-05-15T02:34:10.562Z,2.10
2019-05-15T02:36:42.138Z,2.10
2019-05-15T02:39:12.797Z,1.97
2019-05-15T02:41:44.830Z,1.60
2019-05-15T02:44:15.486Z,2.10
2019-05-15T02:46:50.007Z,1.90
2019-05-15T02:49:21.199Z,2.00
2019-05-15T02:51:51.860Z,2.07
2019-05-15T02:54:22.476Z,1.53
2019-05-15T02:56:53.177Z,2.00
2019-05-15T02:59:23.987Z,1.70
2019-05-15T03:01:54.640Z,1.93
2019-05-15T03:04:25.299Z,2.17
2019-05-15T03:06:56.125Z,1.93
2019-05-15T03:09:29.811Z,1.80
2019-05-15T03:11:59.281Z,2.47
2019-05-15T03:14:29.924Z,2.00
2019-05-15T03:17:00.775Z,2.00
2019-05-15T03:19:31.445Z,1.80
2019-05-15T03:22:02.133Z,2.20
2019-05-15T03:24:32.895Z,1.83
2019-05-15T03:27:03.716Z,2.27
2019-05-15T03:29:35.416Z,1.83
2019-05-15T03:32:22.943Z,1.90
2019-05-15T03:34:46.916Z,2.00
2019-05-15T03:37:12.003Z,2.20
2019-05-15T03:39:48.471Z,1.90
2019-05-15T03:42:19.133Z,1.90
2019-05-15T03:44:50.265Z,2.07
2019-05-15T03:47:21.095Z,2.03
2019-05-15T03:49:53.651Z,1.97
2019-05-15T03:52:25.729Z,2.37
2019-05-15T03:54:58.790Z,2.03
2019-05-15T03:57:31.650Z,2.23
2019-05-15T04:00:02.356Z,2.20
2019-05-15T04:02:33.752Z,2.57
2019-05-15T04:05:05.115Z,2.10
2019-05-15T04:07:35.822Z,1.73
2019-05-15T04:10:09.906Z,2.00
2019-05-15T04:12:40.985Z,2.23
2019-05-15T04:15:12.069Z,2.20
2019-05-15T04:17:43.241Z,2.37
2019-05-15T04:20:15.232Z,2.10
2019-05-15T04:22:49.239Z,1.80
2019-05-15T04:25:19.981Z,2.07
2019-05-15T04:27:51.301Z,1.80
2019-05-15T04:30:21.989Z,2.00
2019-05-15T04:32:54.307Z,2.07
2019-05-15T04:35:25.019Z,1.70
2019-05-15T04:37:55.650Z,1.63
2019-05-15T04:40:29.706Z,1.70
2019-05-15T04:42:59.521Z,1.97
2019-05-15T04:45:34.768Z,1.83
2019-05-15T04:48:02.601Z,1.77
2019-05-15T04:50:33.758Z,1.90
2019-05-15T04:53:04.423Z,1.77
2019-05-15T04:55:35.086Z,2.03
2019-05-15T04:58:05.791Z,1.80
2019-05-15T05:00:53.604Z,1.33
2019-05-15T05:03:24.290Z,2.10
2019-05-15T05:05:54.978Z,1.60
2019-05-15T05:08:28.695Z,1.50
2019-05-15T05:10:59.310Z,1.80
2019-05-15T05:13:30.096Z,1.40
2019-05-15T05:16:00.792Z,1.70
2019-05-15T05:18:31.398Z,1.50
2019-05-15T05:21:02.046Z,1.77
2019-05-15T05:23:33.056Z,1.80
2019-05-15T05:26:03.771Z,1.50
2019-05-15T05:28:34.403Z,2.00
2019-05-15T05:31:05.187Z,2.17
2019-05-15T05:33:37.954Z,1.73
2019-05-15T05:36:08.217Z,2.33
2019-05-15T05:38:39.590Z,2.07
2019-05-15T05:41:10.626Z,2.00
2019-05-15T05:43:41.515Z,1.60
2019-05-15T05:46:12.192Z,1.50
2019-05-15T05:48:43.206Z,2.37
2019-05-15T05:51:13.865Z,1.60
2019-05-15T05:53:44.523Z,1.60
2019-05-15T05:56:15.177Z,2.00
2019-05-15T05:58:45.893Z,1.50
2019-05-15T06:01:18.718Z,1.70
2019-05-15T06:03:49.299Z,1.40
2019-05-15T06:06:20.117Z,1.47
2019-05-15T06:08:51.011Z,1.30
2019-05-15T06:11:21.659Z,1.60
2019-05-15T06:13:52.698Z,1.20
2019-05-15T06:16:23.424Z,1.20
2019-05-15T06:18:54.818Z,1.20
2019-05-15T06:21:25.611Z,1.47
2019-05-15T06:24:03.454Z,1.47
2019-05-15T06:26:29.193Z,1.30
2019-05-15T06:28:59.910Z,1.13
2019-05-15T06:31:30.579Z,1.20
2019-05-15T06:34:01.261Z,1.53
2019-05-15T06:36:32.786Z,1.10
2019-05-15T06:39:05.633Z,2.60
2019-05-15T06:41:39.056Z,1.93
2019-05-15T06:44:09.699Z,1.30
2019-05-15T06:46:40.495Z,1.40
2019-05-15T06:49:11.137Z,1.47
2019-05-15T06:51:43.311Z,1.50
2019-05-15T06:54:15.083Z,3.93
2019-05-15T06:56:45.926Z,2.47
2019-05-15T06:59:18.011Z,1.53
2019-05-15T07:01:49.052Z,1.50
2019-05-15T07:04:19.736Z,1.40
2019-05-15T07:06:50.634Z,1.47
2019-05-15T07:09:21.419Z,1.40
2019-05-15T07:11:52.088Z,1.50
2019-05-15T07:14:22.747Z,1.37
2019-05-15T07:16:53.421Z,1.50
2019-05-15T07:19:24.184Z,1.57
2019-05-15T07:21:57.947Z,1.53
2019-05-15T07:24:28.959Z,1.77
2019-05-15T07:27:00.150Z,1.50
2019-05-15T07:29:31.080Z,1.43
2019-05-15T07:32:01.760Z,1.60
2019-05-15T07:34:32.452Z,2.10
2019-05-15T07:37:03.122Z,1.40
2019-05-15T07:39:34.095Z,1.60
2019-05-15T07:42:05.132Z,1.40
2019-05-15T07:44:38.866Z,1.37
2019-05-15T07:47:09.042Z,1.30
2019-05-15T07:49:39.761Z,1.53
2019-05-15T07:52:11.191Z,1.40
2019-05-15T07:54:42.962Z,1.33
2019-05-15T07:57:19.365Z,1.40
2019-05-15T07:59:49.947Z,1.50
2019-05-15T08:02:22.669Z,1.30
2019-05-15T08:04:53.381Z,1.40
2019-05-15T08:07:27.895Z,1.40
2019-05-15T08:09:59.433Z,1.40
2019-05-15T08:12:30.163Z,1.40
2019-05-15T08:15:01.112Z,2.00
2019-05-15T08:17:33.326Z,1.20
2019-05-15T08:20:05.778Z,1.30
2019-05-15T08:22:38.273Z,1.70
2019-05-15T08:25:27.644Z,2.13
2019-05-15T08:27:45.198Z,2.00
2019-05-15T08:30:19.912Z,1.50
2019-05-15T08:32:51.711Z,1.80
2019-05-15T08:35:22.558Z,2.30
2019-05-15T08:37:53.438Z,2.37
2019-05-15T08:40:24.105Z,2.17
2019-05-15T08:43:01.669Z,2.37
2019-05-15T08:45:28.606Z,1.77
2019-05-15T08:47:59.306Z,3.03
2019-05-15T08:50:30.071Z,3.27
2019-05-15T08:53:00.851Z,2.53
2019-05-15T08:55:31.538Z,2.17
2019-05-15T08:58:07.355Z,2.27
2019-05-15T09:00:34.983Z,2.10
2019-05-15T09:03:05.695Z,3.03
2019-05-15T09:05:38.856Z,3.00
2019-05-15T09:08:09.506Z,4.07
2019-05-15T09:10:41.000Z,2.20
2019-05-15T09:13:11.952Z,2.70
2019-05-15T09:15:52.465Z,2.70
2019-05-15T09:18:28.518Z,3.17
2019-05-15T09:21:00.356Z,3.73
2019-05-15T09:23:32.398Z,3.77
2019-05-15T09:26:03.635Z,3.63
2019-05-15T09:28:38.706Z,2.83
2019-05-15T09:31:15.356Z,3.20
2019-05-15T09:33:49.242Z,3.83
2019-05-15T09:36:22.029Z,3.47
2019-05-15T09:38:52.846Z,3.67
2019-05-15T09:41:23.527Z,3.00
2019-05-15T09:44:03.853Z,2.90
2019-05-15T09:46:34.679Z,2.60
2019-05-15T09:49:05.392Z,2.30
2019-05-15T09:51:38.319Z,2.20
2019-05-15T09:54:08.671Z,2.57
2019-05-15T09:56:39.592Z,2.17
2019-05-15T09:59:10.523Z,2.00
2019-05-15T10:01:44.373Z,2.20
2019-05-15T10:04:15.848Z,1.80
2019-05-15T10:06:48.592Z,1.83
2019-05-15T10:09:19.661Z,2.57
2019-05-15T10:11:50.772Z,2.13
2019-05-15T10:14:22.894Z,3.90
2019-05-15T10:16:58.421Z,3.30
2019-05-15T10:19:29.109Z,3.60
2019-05-15T10:21:59.979Z,3.13
2019-05-15T10:24:30.673Z,3.30
2019-05-15T10:27:01.467Z,4.53
2019-05-15T10:29:32.204Z,2.97
2019-05-15T10:32:03.007Z,3.70
2019-05-15T10:34:33.914Z,3.00
2019-05-15T10:37:04.745Z,2.40
2019-05-15T10:39:35.570Z,2.30
2019-05-15T10:42:08.286Z,2.07
2019-05-15T10:44:39.651Z,2.57
2019-05-15T10:47:10.436Z,2.00
2019-05-15T10:49:41.168Z,1.70
2019-05-15T10:52:11.827Z,1.80
2019-05-15T10:54:43.557Z,1.87
2019-05-15T10:57:14.267Z,2.03
2019-05-15T10:59:44.948Z,1.93
2019-05-15T11:02:15.595Z,1.63
2019-05-15T11:04:48.577Z,1.60
2019-05-15T11:07:19.624Z,2.00
2019-05-15T11:09:50.554Z,2.13
2019-05-15T11:12:22.673Z,1.50
2019-05-15T11:14:54.999Z,1.40
2019-05-15T11:17:25.745Z,1.93
2019-05-15T11:19:58.521Z,1.60
2019-05-15T11:22:29.859Z,1.47
2019-05-15T11:25:00.685Z,1.67
2019-05-15T11:27:31.603Z,1.60
2019-05-15T11:30:02.304Z,1.60
2019-05-15T11:32:32.981Z,1.50
2019-05-15T11:35:04.670Z,1.60
2019-05-15T11:37:35.534Z,1.70
2019-05-15T11:40:10.040Z,1.70
2019-05-15T11:42:41.303Z,1.60
2019-05-15T11:45:13.591Z,1.40
2019-05-15T11:47:45.255Z,1.60
2019-05-15T11:50:19.999Z,1.77
2019-05-15T11:52:48.993Z,1.80
2019-05-15T11:55:20.299Z,1.57
2019-05-15T11:57:53.548Z,1.60
2019-05-15T12:00:27.006Z,1.40
2019-05-15T12:02:58.484Z,1.47
2019-05-15T12:05:29.229Z,1.40
2019-05-15T12:07:59.912Z,1.50
2019-05-15T12:10:30.781Z,1.50
2019-05-15T12:13:01.435Z,1.67
2019-05-15T12:15:32.320Z,1.60
2019-05-15T12:18:03.060Z,1.80
2019-05-15T12:20:34.053Z,2.10
2019-05-15T12:23:04.758Z,1.57
2019-05-15T12:25:35.482Z,1.90
2019-05-15T12:28:09.686Z,1.67
2019-05-15T12:33:11.935Z,1.73
2019-05-15T12:35:42.909Z,1.43
2019-05-15T12:38:13.722Z,1.83
2019-05-15T13:01:14.674Z,1.73
2019-05-15T13:03:39.178Z,1.73
2019-05-15T13:06:09.998Z,1.40
2019-05-15T13:08:41.756Z,1.60
2019-05-15T13:11:15.138Z,1.73
2019-05-15T13:13:44.973Z,1.60
2019-05-15T13:16:15.646Z,1.60
2019-05-15T13:18:48.112Z,1.57
2019-05-15T13:21:20.880Z,1.60
2019-05-15T13:23:51.382Z,1.80
2019-05-15T13:26:24.533Z,1.73
2019-05-15T13:28:54.558Z,1.63
2019-05-15T13:31:25.468Z,1.80
2019-05-15T13:33:58.563Z,1.63
2019-05-15T13:36:29.076Z,1.90
2019-05-15T13:38:59.911Z,1.77
2019-05-15T13:41:31.000Z,1.47
2019-05-15T13:44:01.727Z,1.60
2019-05-15T13:46:33.666Z,1.97
2019-05-15T13:49:04.582Z,1.60
2019-05-15T13:51:38.155Z,1.53
2019-05-15T13:54:08.640Z,1.57
2019-05-15T13:56:40.536Z,1.43
2019-05-15T13:59:11.366Z,1.57
2019-05-15T14:01:42.443Z,2.03
2019-05-15T14:04:22.203Z,1.37
2019-05-15T14:06:53.216Z,1.53
2019-05-15T14:09:24.328Z,1.57
2019-05-15T14:11:55.180Z,1.90
2019-05-15T14:14:28.534Z,1.93
2019-05-15T14:16:59.242Z,1.70
2019-05-15T14:19:30.414Z,1.50
2019-05-15T14:22:01.072Z,1.97
2019-05-15T14:24:32.561Z,1.67
2019-05-15T14:27:03.425Z,1.80
2019-05-15T14:29:34.491Z,1.70
2019-05-15T14:32:05.277Z,1.97
2019-05-15T14:34:38.135Z,1.90
2019-05-15T14:37:13.896Z,1.47
2019-05-15T14:39:44.807Z,1.83
2019-05-15T14:42:18.665Z,2.10
2019-05-15T14:44:48.591Z,1.57
2019-05-15T14:47:19.388Z,1.63
2019-05-15T14:49:50.198Z,1.60
2019-05-15T14:52:20.890Z,1.73
2019-05-15T14:54:51.945Z,1.97
2019-05-15T14:57:22.707Z,1.77
2019-05-15T14:59:55.010Z,1.50
2019-05-15T15:02:25.700Z,1.90
2019-05-15T15:04:59.220Z,1.83
2019-05-15T15:07:28.989Z,1.40
2019-05-15T15:10:00.031Z,1.70
2019-05-15T15:12:34.601Z,1.70
2019-05-15T15:15:09.042Z,1.80
2019-05-15T15:17:39.353Z,1.80
2019-05-15T15:20:11.116Z,1.90
2019-05-15T15:22:43.737Z,1.90
2019-05-15T15:25:14.650Z,2.00
2019-05-15T15:27:48.665Z,2.00
2019-05-15T15:30:23.979Z,1.70
2019-05-15T15:33:03.140Z,2.37
2019-05-15T15:35:34.117Z,2.03
2019-05-15T15:38:04.897Z,2.00
2019-05-15T15:40:38.585Z,1.97
2019-05-15T15:43:10.532Z,1.63
2019-05-15T15:45:42.604Z,1.70
2019-05-15T15:48:13.447Z,1.53
2019-05-15T15:50:45.105Z,2.10
2019-05-15T15:53:15.758Z,1.70
2019-05-15T15:55:48.804Z,1.70
2019-05-15T15:58:20.024Z,1.70
2019-05-15T16:00:50.905Z,1.80
2019-05-15T16:03:21.671Z,1.77
2019-05-15T16:05:53.226Z,1.87
2019-05-15T16:08:24.156Z,1.60
2019-05-15T16:10:54.848Z,1.70
2019-05-15T16:13:25.705Z,1.93
2019-05-15T16:15:57.931Z,1.53
2019-05-15T16:18:29.064Z,1.70
2019-05-15T16:21:03.976Z,2.00
2019-05-15T16:23:35.297Z,1.67
2019-05-15T16:26:06.111Z,1.80
2019-05-15T16:28:41.695Z,1.80
2019-05-15T16:31:14.995Z,2.13
2019-05-15T16:33:48.067Z,2.00
2019-05-15T16:36:19.734Z,1.63
2019-05-15T16:39:03.886Z,2.03
2019-05-15T16:41:33.878Z,2.10
2019-05-15T16:44:08.407Z,2.40
2019-05-15T16:46:39.283Z,1.97
2019-05-15T16:49:10.407Z,1.90
2019-05-15T16:51:43.399Z,1.80
2019-05-15T16:54:18.060Z,2.47
2019-05-15T16:56:49.005Z,2.10
2019-05-15T16:59:20.004Z,2.60
2019-05-15T17:01:52.817Z,5.03
2019-05-15T17:04:23.616Z,9.50
2019-05-15T17:06:54.493Z,3.27
2019-05-15T17:09:25.216Z,2.33
2019-05-15T17:11:58.208Z,1.63
2019-05-15T17:14:29.879Z,2.20
2019-05-15T17:17:00.634Z,2.00
2019-05-15T17:19:32.532Z,2.53
2019-05-15T17:22:03.318Z,2.53
2019-05-15T17:24:34.537Z,2.30
2019-05-15T17:27:10.326Z,1.90
2019-05-15T17:29:41.681Z,2.13
2019-05-15T17:32:12.844Z,1.93
2019-05-15T17:34:48.839Z,2.33
2019-05-15T17:37:20.230Z,1.80
2019-05-15T17:39:55.377Z,1.70
2019-05-15T17:42:28.872Z,2.10
2019-05-15T17:44:59.146Z,2.23
2019-05-15T17:47:29.978Z,2.23
2019-05-15T17:50:01.707Z,2.10
2019-05-15T17:52:33.083Z,2.30
2019-05-15T17:55:04.237Z,2.10
2019-05-15T17:57:38.344Z,2.13
2019-05-15T18:00:12.258Z,2.50
2019-05-15T18:02:42.961Z,2.47
2019-05-15T18:05:14.773Z,2.60
2019-05-15T18:07:48.899Z,2.30
2019-05-15T18:10:21.344Z,2.13
2019-05-15T18:12:52.296Z,2.10
2019-05-15T18:15:23.316Z,2.63
2019-05-15T18:17:54.670Z,2.57
2019-05-15T18:20:29.553Z,2.50
2019-05-15T18:23:00.998Z,2.60
2019-05-15T18:25:33.053Z,3.20
2019-05-15T18:28:04.540Z,2.37
2019-05-15T18:30:35.774Z,3.37
2019-05-15T18:34:04.034Z,3.03
2019-05-15T18:36:35.029Z,2.53
2019-05-15T18:39:08.480Z,2.40
2019-05-15T18:41:40.755Z,3.20
2019-05-15T18:44:15.468Z,2.70
2019-05-15T18:46:48.606Z,2.93
2019-05-15T18:49:19.552Z,2.60
2019-05-15T18:51:50.432Z,2.30
2019-05-15T18:54:21.239Z,2.43
2019-05-15T18:56:54.341Z,2.57
2019-05-15T18:59:25.295Z,2.30
2019-05-15T19:01:58.510Z,2.07
2019-05-15T19:04:28.910Z,2.50
2019-05-15T19:06:59.759Z,2.27
2019-05-15T19:09:30.776Z,2.10
2019-05-15T19:12:02.580Z,2.20
2019-05-15T19:17:08.116Z,2.57
2019-05-15T19:19:38.935Z,2.30
2019-05-15T19:22:09.737Z,2.50
2019-05-15T19:24:41.375Z,2.47
2019-05-15T19:27:12.910Z,2.63
2019-05-15T19:29:59.051Z,2.67
2019-05-15T19:32:31.428Z,2.10
2019-05-15T19:35:02.424Z,2.40
2019-05-15T19:37:33.833Z,2.67
2019-05-15T19:40:23.078Z,2.63
2019-05-15T19:42:58.659Z,2.40
2019-05-15T19:45:28.921Z,2.70
2019-05-15T19:48:02.666Z,2.63
2019-05-15T19:50:34.589Z,2.30
2019-05-15T19:53:05.489Z,2.63
2019-05-15T19:55:43.355Z,2.00
2019-05-15T19:58:28.645Z,2.40
2019-05-15T20:01:00.205Z,2.37
2019-05-15T20:03:30.859Z,2.43
2019-05-15T20:06:01.877Z,2.27
2019-05-15T20:08:32.525Z,2.53
2019-05-15T20:11:03.271Z,2.10
2019-05-15T20:13:35.626Z,2.77
2019-05-15T20:16:06.374Z,2.33
2019-05-15T20:18:39.380Z,1.97
2019-05-15T20:21:10.168Z,2.70
2019-05-15T20:23:42.115Z,2.00
2019-05-15T20:26:12.825Z,2.53
2019-05-15T20:28:43.781Z,2.20
2019-05-15T20:31:14.552Z,1.87
2019-05-15T20:33:45.375Z,2.47
2019-05-15T20:36:18.233Z,1.97
2019-05-15T20:38:48.527Z,2.60
2019-05-15T20:41:19.608Z,2.20
2019-05-15T20:43:50.289Z,2.07
2019-05-15T20:46:21.007Z,2.23
2019-05-15T20:48:52.574Z,2.70
2019-05-15T20:51:23.205Z,1.60
2019-05-15T20:53:53.988Z,2.30
2019-05-15T20:56:28.100Z,2.50
2019-05-15T20:58:58.557Z,2.00
2019-05-15T21:01:30.002Z,1.97
2019-05-15T21:04:00.757Z,2.00
2019-05-15T21:06:31.513Z,2.23
2019-05-15T21:09:02.173Z,1.90
2019-05-15T21:11:33.252Z,2.17
2019-05-15T21:14:03.889Z,2.13
2019-05-15T21:16:34.551Z,2.73
2019-05-15T21:19:05.178Z,2.80
2019-05-15T21:21:35.919Z,2.80
2019-05-15T21:24:06.581Z,2.67
2019-05-15T21:26:38.240Z,2.37
2019-05-15T21:29:09.056Z,2.13
2019-05-15T21:31:40.536Z,2.37
2019-05-15T21:34:11.226Z,2.43
2019-05-15T21:36:42.863Z,2.43
2019-05-15T21:39:13.602Z,2.30
2019-05-15T21:41:44.902Z,2.37
2019-05-15T21:44:15.887Z,2.23
2019-05-15T21:46:48.151Z,2.30
2019-05-15T21:49:19.247Z,2.33
2019-05-15T21:51:49.982Z,2.40
2019-05-15T21:54:20.794Z,2.23
2019-05-15T21:56:51.468Z,2.60
2019-05-15T21:59:22.166Z,2.60
2019-05-15T22:01:53.066Z,2.80
2019-05-15T22:04:23.753Z,2.70
2019-05-15T22:06:54.465Z,2.70
2019-05-15T22:09:25.289Z,2.70
2019-05-15T22:12:00.907Z,2.83
2019-05-15T22:14:29.964Z,2.67
2019-05-15T22:17:01.176Z,2.67
2019-05-15T22:19:32.035Z,2.40
2019-05-15T22:22:02.939Z,2.90
2019-05-15T22:24:33.841Z,2.50
2019-05-15T22:27:04.522Z,2.60
2019-05-15T22:29:37.850Z,2.47
2019-05-15T22:32:08.183Z,2.63
2019-05-15T22:34:39.025Z,2.90
2019-05-15T22:37:09.721Z,3.00
2019-05-15T22:39:42.161Z,3.20
2019-05-15T22:42:12.841Z,3.20
2019-05-15T22:44:44.116Z,3.23
2019-05-15T22:47:14.766Z,3.20
2019-05-15T22:49:45.467Z,3.37
2019-05-15T22:52:18.334Z,3.53
2019-05-15T22:54:48.542Z,2.90
2019-05-15T22:57:19.197Z,3.23
2019-05-15T22:59:49.838Z,2.87
2019-05-15T23:02:20.603Z,2.53
2019-05-15T23:04:51.236Z,3.00
2019-05-15T23:07:21.923Z,3.57
2019-05-15T23:09:52.602Z,2.60
2019-05-15T23:12:24.690Z,2.80
2019-05-15T23:14:55.343Z,3.00
2019-05-15T23:17:27.727Z,2.90
2019-05-15T23:19:58.409Z,3.40
2019-05-15T23:22:29.292Z,3.70
2019-05-15T23:24:59.980Z,3.17
2019-05-15T23:27:30.609Z,3.13
2019-05-15T23:30:02.054Z,3.17
2019-05-15T23:32:32.732Z,3.63
2019-05-15T23:35:03.830Z,3.73
2019-05-15T23:37:34.568Z,3.60
2019-05-15T23:40:08.551Z,3.47
2019-05-15T23:42:39.440Z,3.63
2019-05-15T23:45:10.770Z,3.30
2019-05-15T23:47:42.992Z,4.13
2019-05-15T23:50:13.874Z,2.97
2019-05-15T23:52:44.563Z,3.20
2019-05-15T23:55:18.787Z,3.97
2019-05-15T23:57:49.066Z,3.80
